Aérodrome :
LOGIN :

S'inscrire | Disclaimer

   EN    FR    IT 

 










Légende :    VFR   VFR Marginal   IFR   IFR Intensif   IFR Très Intensif
Visi : 
Plafond : 
>= 8 km
>= 3000ft
5 à 8 km
1000 à 3000 ft
1500m à 5 km
500 à 1000 ft
800 à 1500m
200 à 500 ft
< 800m
< 200 ft
Symboles :   Orages  Brouillard  Fortes neiges  Fortes précipitations  Vent > 20 kt
SIGMETs :   Divers  Orages  Givrage  Turbulence  Onde Orograph.  Cendres Volcan.






- Altitude de l'aérodrome : 634 ft
- Code IATA : MXX


ESKM - Mora

DERNIER METAR :
  • 090120Z AUTO 29006KT 260V330 9999 NCD 02/M04 Q1010

METARs EXPIRÉS :
  • 090050Z AUTO 31005KT 9999 NCD 01/M03 Q1010
  • 090020Z AUTO VRB02KT 9999 NCD M00/M02 Q1010
  • 082350Z AUTO 30006KT 9999 NCD 02/M01 Q1010
  • 082320Z AUTO 29006KT 9999 NCD 02/00 Q1010
  • 082250Z AUTO 29004KT 270V340 9999 FEW062/// 01/01 Q1010
  • 082220Z AUTO 33003KT 9999 FEW055/// 02/02 Q1010

TAF N/A



MET'MAP, la Météo Aéronautique d'un coup d'oeil ! - Copyright ORBIFLY Décembre 2007 - Disclaimer

ORBIFLY MET'MAP TEAM :

Programmation & Développement : Alexandra Zaïnal
Sur une idée originale de : Baudouin d'Aumeries
Assistance à la programmation : Marc-Olivier Méhu
Soutien technique & logistique : Manuel Goepfert

Contact : metmap@orbifly.com




SOURCES & CREDITS :

   NOAA